createdAt,value
2018-03-28T00:01:01.690Z,4.45
2018-03-28T00:04:05.273Z,4.39
2018-03-28T00:07:09.304Z,4.40
2018-03-28T00:10:12.569Z,4.41
2018-03-28T00:13:15.868Z,4.39
2018-03-28T00:16:19.153Z,4.44
2018-03-28T00:19:22.442Z,4.49
2018-03-28T00:22:25.949Z,4.53
2018-03-28T00:25:29.230Z,4.44
2018-03-28T00:28:32.891Z,4.40
2018-03-28T00:31:36.926Z,4.23
2018-03-28T00:34:40.364Z,4.18
2018-03-28T00:37:43.617Z,4.04
2018-03-28T00:40:47.210Z,4.16
2018-03-28T00:43:51.235Z,4.17
2018-03-28T00:46:54.518Z,4.10
2018-03-28T00:49:58.830Z,4.10
2018-03-28T00:53:03.164Z,4.11
2018-03-28T00:56:07.190Z,4.12
2018-03-28T00:59:10.475Z,4.12
2018-03-28T01:02:14.494Z,4.01
2018-03-28T01:05:17.776Z,4.03
2018-03-28T01:08:22.212Z,4.06
2018-03-28T01:11:25.579Z,4.03
2018-03-28T01:14:28.851Z,3.97
2018-03-28T01:17:32.236Z,3.94
2018-03-28T01:20:35.505Z,4.00
2018-03-28T01:23:39.552Z,4.04
2018-03-28T01:26:42.820Z,3.97
2018-03-28T01:29:46.093Z,3.95
2018-03-28T01:32:49.370Z,3.88
2018-03-28T01:35:52.669Z,3.97
2018-03-28T01:38:55.982Z,4.02
2018-03-28T01:41:59.237Z,4.00
2018-03-28T01:45:02.524Z,3.92
2018-03-28T01:48:05.790Z,4.02
2018-03-28T01:51:10.080Z,3.97
2018-03-28T01:54:13.353Z,3.97
2018-03-28T01:57:16.842Z,3.98
2018-03-28T02:00:20.118Z,4.01
2018-03-28T02:03:23.393Z,4.03
2018-03-28T02:06:27.422Z,4.10
2018-03-28T02:09:31.450Z,4.07
2018-03-28T02:12:34.738Z,4.07
2018-03-28T02:15:39.054Z,4.04
2018-03-28T02:18:43.081Z,4.09
2018-03-28T02:21:46.348Z,4.19
2018-03-28T02:24:49.793Z,4.18
2018-03-28T02:27:53.106Z,4.22
2018-03-28T02:30:56.378Z,4.16
2018-03-28T02:33:59.674Z,4.17
2018-03-28T02:37:03.073Z,4.22
2018-03-28T02:40:06.633Z,4.27
2018-03-28T02:43:09.898Z,4.33
2018-03-28T02:46:13.174Z,4.31
2018-03-28T02:49:16.439Z,4.24
2018-03-28T02:52:20.478Z,4.34
2018-03-28T02:55:23.753Z,4.31
2018-03-28T02:58:28.480Z,4.35
2018-03-28T03:01:31.736Z,4.31
2018-03-28T03:04:35.590Z,4.33
2018-03-28T03:07:38.851Z,4.34
2018-03-28T03:10:42.900Z,4.34
2018-03-28T03:13:46.207Z,4.39
2018-03-28T03:16:49.457Z,4.38
2018-03-28T03:19:52.733Z,4.41
2018-03-28T03:22:55.986Z,4.43
2018-03-28T03:25:59.249Z,4.53
2018-03-28T03:29:02.519Z,4.57
2018-03-28T03:32:05.781Z,4.65
2018-03-28T03:35:09.067Z,4.68
2018-03-28T03:38:12.342Z,4.72
2018-03-28T03:41:15.645Z,4.76
2018-03-28T03:44:18.919Z,4.76
2018-03-28T03:47:22.198Z,4.84
2018-03-28T03:50:25.486Z,4.85
2018-03-28T03:53:30.369Z,4.89
2018-03-28T03:56:33.640Z,4.93
2018-03-28T03:59:37.184Z,4.91
2018-03-28T04:02:40.447Z,4.95
2018-03-28T04:05:44.027Z,4.93
2018-03-28T04:08:47.908Z,4.99
2018-03-28T04:11:51.791Z,5.00
2018-03-28T04:14:55.072Z,5.03
2018-03-28T04:17:58.358Z,5.06
2018-03-28T04:21:01.913Z,5.05
2018-03-28T04:24:05.215Z,5.06
2018-03-28T04:27:08.715Z,5.12
2018-03-28T04:30:12.282Z,5.14
2018-03-28T04:33:15.549Z,5.09
2018-03-28T04:36:18.829Z,5.14
2018-03-28T04:39:22.886Z,5.19
2018-03-28T04:42:26.160Z,5.18
2018-03-28T04:45:29.478Z,5.20
2018-03-28T04:48:33.029Z,5.20
2018-03-28T04:51:36.313Z,5.20
2018-03-28T04:54:39.627Z,5.19
2018-03-28T04:57:42.896Z,5.25
2018-03-28T05:00:46.178Z,5.26
2018-03-28T05:03:49.533Z,5.29
2018-03-28T05:06:53.521Z,5.27
2018-03-28T05:09:56.789Z,5.29
2018-03-28T05:13:00.061Z,5.36
2018-03-28T05:16:03.841Z,5.38
2018-03-28T05:19:07.134Z,5.39
2018-03-28T05:22:10.428Z,5.47
2018-03-28T05:25:13.735Z,5.43
2018-03-28T05:28:16.998Z,5.46
2018-03-28T05:31:20.525Z,5.50
2018-03-28T05:34:23.811Z,5.51
2018-03-28T05:37:27.365Z,5.52
2018-03-28T05:40:30.961Z,5.52
2018-03-28T05:43:35.275Z,5.53
2018-03-28T05:46:39.318Z,5.60
2018-03-28T05:49:43.010Z,5.64
2018-03-28T05:52:46.273Z,5.72
2018-03-28T05:55:49.600Z,5.76
2018-03-28T05:58:53.185Z,5.82
2018-03-28T06:01:56.799Z,5.88
2018-03-28T06:05:00.845Z,6.01
2018-03-28T06:08:04.241Z,6.17
2018-03-28T06:11:07.785Z,6.24
2018-03-28T06:14:11.344Z,6.28
2018-03-28T06:17:14.656Z,6.30
2018-03-28T06:20:18.217Z,6.33
2018-03-28T06:23:22.562Z,6.38
2018-03-28T06:26:26.108Z,6.49
2018-03-28T06:29:29.435Z,6.49
2018-03-28T06:32:33.486Z,6.54
2018-03-28T06:35:36.770Z,6.67
2018-03-28T06:38:40.819Z,6.67
2018-03-28T06:41:44.084Z,6.73
2018-03-28T06:44:48.523Z,6.83
2018-03-28T06:47:51.795Z,6.94
2018-03-28T06:50:55.839Z,7.08
2018-03-28T06:53:59.122Z,7.17
2018-03-28T06:57:02.700Z,7.23
2018-03-28T07:00:06.227Z,7.19
2018-03-28T07:03:09.509Z,7.17
2018-03-28T07:06:13.095Z,7.09
2018-03-28T07:09:16.605Z,7.04
2018-03-28T07:12:20.209Z,7.14
2018-03-28T07:15:23.480Z,7.31
2018-03-28T07:18:26.732Z,7.53
2018-03-28T07:21:30.311Z,7.70
2018-03-28T07:24:33.584Z,7.68
2018-03-28T07:27:36.988Z,7.98
2018-03-28T07:30:40.276Z,8.26
2018-03-28T07:33:43.927Z,8.27
2018-03-28T07:36:47.954Z,8.42
2018-03-28T07:39:51.994Z,9.05
2018-03-28T07:42:55.281Z,9.14
2018-03-28T07:45:58.585Z,9.88
2018-03-28T07:49:01.849Z,9.69
2018-03-28T07:52:05.117Z,9.55
2018-03-28T07:55:08.392Z,9.55
2018-03-28T07:58:11.663Z,9.88
2018-03-28T08:01:15.787Z,10.09
2018-03-28T08:04:19.104Z,10.13
2018-03-28T08:07:22.441Z,10.07
2018-03-28T08:10:25.756Z,10.10
2018-03-28T08:13:29.824Z,10.68
2018-03-28T08:16:33.095Z,10.05
2018-03-28T08:19:36.412Z,10.06
2018-03-28T08:22:39.728Z,10.19
2018-03-28T08:25:43.379Z,10.35
2018-03-28T08:28:46.682Z,10.52
2018-03-28T08:31:50.092Z,11.19
2018-03-28T08:34:53.390Z,11.02
2018-03-28T08:37:56.882Z,11.13
2018-03-28T08:41:00.939Z,11.37
2018-03-28T08:44:04.988Z,11.53
2018-03-28T08:47:08.271Z,11.76
2018-03-28T08:50:11.539Z,11.75
2018-03-28T08:53:15.040Z,11.77
2018-03-28T08:56:19.374Z,12.06
2018-03-28T08:59:22.639Z,11.90
2018-03-28T09:02:25.949Z,11.41
2018-03-28T09:05:29.237Z,11.68
2018-03-28T09:08:32.535Z,11.41
2018-03-28T09:11:36.758Z,11.73
2018-03-28T09:14:40.757Z,11.30
2018-03-28T09:17:44.831Z,11.21
2018-03-28T09:20:48.301Z,10.93
2018-03-28T09:23:51.596Z,10.84
2018-03-28T09:26:54.885Z,10.96
2018-03-28T09:29:58.161Z,11.12
2018-03-28T09:33:02.488Z,11.04
2018-03-28T09:36:06.793Z,11.13
2018-03-28T09:39:10.856Z,11.02
2018-03-28T09:42:14.156Z,11.04
2018-03-28T09:45:17.440Z,11.24
2018-03-28T09:48:20.954Z,11.25
2018-03-28T09:51:24.250Z,11.08
2018-03-28T09:54:28.545Z,10.96
2018-03-28T09:57:32.104Z,11.27
2018-03-28T10:00:35.648Z,11.42
2018-03-28T10:03:45.140Z,11.03
2018-03-28T10:06:48.413Z,10.63
2018-03-28T10:09:52.085Z,10.61
2018-03-28T10:12:56.372Z,10.58
2018-03-28T10:15:59.638Z,10.63
2018-03-28T10:19:02.918Z,10.77
2018-03-28T10:22:06.201Z,11.09
2018-03-28T10:25:10.243Z,11.25
2018-03-28T10:28:13.510Z,11.38
2018-03-28T10:31:16.803Z,10.95
2018-03-28T10:34:20.853Z,11.20
2018-03-28T10:37:24.155Z,11.30
2018-03-28T10:40:27.448Z,11.42
2018-03-28T10:43:30.716Z,12.04
2018-03-28T10:46:34.762Z,11.77
2018-03-28T10:49:38.139Z,11.56
2018-03-28T10:52:41.421Z,11.47
2018-03-28T10:55:45.493Z,11.43
2018-03-28T10:58:48.778Z,11.29
2018-03-28T11:01:52.320Z,11.19
2018-03-28T11:04:55.606Z,11.36
2018-03-28T11:07:59.118Z,11.73
2018-03-28T11:11:02.392Z,11.98
2018-03-28T11:14:05.670Z,12.11
2018-03-28T11:17:09.013Z,11.87
2018-03-28T11:20:12.386Z,12.57
2018-03-28T11:23:15.652Z,12.57
2018-03-28T11:26:19.693Z,11.90
2018-03-28T11:29:22.975Z,11.93
2018-03-28T11:32:26.332Z,12.07
2018-03-28T11:35:29.841Z,11.87
2018-03-28T11:38:33.905Z,12.36
2018-03-28T11:41:37.441Z,12.57
2018-03-28T11:44:40.741Z,12.44
2018-03-28T11:47:44.009Z,12.31
2018-03-28T11:50:47.287Z,12.26
2018-03-28T11:53:50.591Z,12.35
2018-03-28T11:56:53.863Z,12.19
2018-03-28T11:59:57.899Z,11.95
2018-03-28T12:03:02.234Z,11.65
2018-03-28T12:06:05.495Z,11.77
2018-03-28T12:09:09.539Z,11.44
2018-03-28T12:12:12.843Z,11.54
2018-03-28T12:15:16.121Z,11.43
2018-03-28T12:18:19.391Z,11.50
2018-03-28T12:21:23.688Z,11.86
2018-03-28T12:24:26.962Z,12.27
2018-03-28T12:27:30.247Z,11.98
2018-03-28T12:30:33.552Z,11.61
2018-03-28T12:33:36.833Z,11.66
2018-03-28T12:36:40.118Z,11.93
2018-03-28T12:39:43.452Z,11.85
2018-03-28T12:42:46.716Z,11.83
2018-03-28T12:45:50.011Z,11.91
2018-03-28T12:48:54.110Z,12.06
2018-03-28T12:51:58.440Z,11.80
2018-03-28T12:55:02.545Z,11.82
2018-03-28T12:58:05.829Z,11.80
2018-03-28T13:01:09.103Z,11.53
2018-03-28T13:04:12.385Z,11.71
2018-03-28T13:07:15.654Z,11.62
2018-03-28T13:10:19.955Z,11.52
2018-03-28T13:13:23.440Z,11.75
2018-03-28T13:16:26.715Z,11.93
2018-03-28T13:19:29.998Z,12.08
2018-03-28T13:22:33.277Z,12.01
2018-03-28T13:25:36.589Z,11.82
2018-03-28T13:28:39.905Z,11.75
2018-03-28T13:31:43.177Z,11.80
2018-03-28T13:34:46.452Z,11.74
2018-03-28T13:37:50.502Z,11.97
2018-03-28T13:40:54.088Z,11.72
2018-03-28T13:43:57.648Z,11.56
2018-03-28T13:47:00.917Z,11.58
2018-03-28T13:50:05.647Z,11.70
2018-03-28T13:53:08.937Z,11.79
2018-03-28T13:56:12.497Z,11.54
2018-03-28T13:59:16.001Z,11.55
2018-03-28T14:02:19.267Z,11.54
2018-03-28T14:05:22.550Z,11.55
2018-03-28T14:08:26.085Z,11.65
2018-03-28T14:11:30.229Z,11.80
2018-03-28T14:14:33.605Z,11.89
2018-03-28T14:17:36.867Z,11.68
2018-03-28T14:20:40.158Z,11.48
2018-03-28T14:23:43.424Z,11.58
2018-03-28T14:26:47.494Z,11.59
2018-03-28T14:29:51.853Z,11.56
2018-03-28T14:32:55.154Z,11.56
2018-03-28T14:35:59.217Z,11.69
2018-03-28T14:39:02.618Z,11.77
2018-03-28T14:42:05.914Z,11.93
2018-03-28T14:45:09.280Z,12.28
2018-03-28T14:48:12.522Z,12.34
2018-03-28T14:51:15.821Z,12.26
2018-03-28T14:54:19.124Z,12.11
2018-03-28T14:57:22.398Z,11.96
2018-03-28T15:00:25.718Z,12.17
2018-03-28T15:03:29.401Z,12.20
2018-03-28T15:06:32.730Z,11.99
2018-03-28T15:09:52.234Z,11.99
2018-03-28T15:12:56.403Z,11.94
2018-03-28T15:16:00.535Z,11.73
2018-03-28T15:19:03.812Z,11.83
2018-03-28T15:22:07.869Z,11.71
2018-03-28T15:25:11.196Z,11.57
2018-03-28T15:28:14.457Z,11.47
2018-03-28T15:31:17.757Z,11.28
2018-03-28T15:34:21.055Z,11.41
2018-03-28T15:37:24.636Z,11.27
2018-03-28T15:40:28.749Z,11.35
2018-03-28T15:43:33.580Z,11.27
2018-03-28T15:46:37.608Z,11.03
2018-03-28T15:49:40.905Z,10.89
2018-03-28T15:52:44.167Z,10.65
2018-03-28T15:55:47.456Z,10.57
2018-03-28T15:58:50.716Z,10.56
2018-03-28T16:01:54.024Z,10.23
2018-03-28T16:04:57.333Z,10.14
2018-03-28T16:08:01.605Z,10.05
2018-03-28T16:11:05.681Z,10.01
2018-03-28T16:14:08.952Z,9.99
2018-03-28T16:17:12.221Z,9.88
2018-03-28T16:20:16.348Z,9.82
2018-03-28T16:23:19.644Z,9.73
2018-03-28T16:26:22.922Z,9.60
2018-03-28T16:29:27.557Z,9.68
2018-03-28T16:32:30.841Z,9.57
2018-03-28T16:35:34.869Z,9.58
2018-03-28T16:38:38.909Z,9.47
2018-03-28T16:41:42.232Z,9.44
2018-03-28T16:44:45.498Z,9.41
2018-03-28T16:47:48.781Z,9.44
2018-03-28T16:50:52.056Z,9.38
2018-03-28T16:53:55.566Z,9.50
2018-03-28T16:56:59.616Z,9.52
2018-03-28T17:00:03.021Z,9.50
2018-03-28T17:03:07.116Z,9.54
2018-03-28T17:06:10.394Z,9.60
2018-03-28T17:09:33.355Z,9.52
2018-03-28T17:12:37.598Z,9.58
2018-03-28T17:15:40.960Z,9.48
2018-03-28T17:18:44.229Z,9.37
2018-03-28T17:21:47.497Z,9.39
2018-03-28T17:24:50.804Z,9.36
2018-03-28T17:27:54.071Z,9.37
2018-03-28T17:31:01.163Z,9.40
2018-03-28T17:34:04.955Z,9.21
2018-03-28T17:37:09.039Z,9.12
2018-03-28T17:40:12.310Z,9.03
2018-03-28T17:43:15.595Z,9.08
2018-03-28T17:46:18.893Z,9.01
2018-03-28T17:49:22.158Z,8.99
2018-03-28T17:52:25.403Z,9.08
2018-03-28T17:55:28.695Z,9.09
2018-03-28T17:58:31.965Z,8.98
2018-03-28T18:01:35.993Z,8.88
2018-03-28T18:04:39.267Z,8.83
2018-03-28T18:07:43.285Z,8.84
2018-03-28T18:10:47.312Z,8.82
2018-03-28T18:13:50.603Z,8.88
2018-03-28T18:16:54.626Z,8.83
2018-03-28T18:19:58.654Z,8.93
2018-03-28T18:23:01.910Z,8.99
2018-03-28T18:26:05.199Z,9.02
2018-03-28T18:29:08.450Z,8.95
2018-03-28T18:32:11.717Z,8.94
2018-03-28T18:35:15.771Z,8.83
2018-03-28T18:38:19.340Z,8.84
2018-03-28T18:41:23.353Z,8.83
2018-03-28T18:44:26.665Z,8.82
2018-03-28T18:47:29.990Z,8.78
2018-03-28T18:50:33.979Z,8.83
2018-03-28T18:53:38.212Z,8.81
2018-03-28T18:56:42.300Z,8.76
2018-03-28T18:59:46.539Z,8.76
2018-03-28T19:02:49.856Z,8.81
2018-03-28T19:05:53.134Z,8.82
2018-03-28T19:08:56.408Z,8.76
2018-03-28T19:11:59.720Z,8.69
2018-03-28T19:15:03.768Z,8.78
2018-03-28T19:18:07.038Z,8.72
2018-03-28T19:21:11.084Z,8.74
2018-03-28T19:24:14.360Z,8.72
2018-03-28T19:27:17.643Z,8.72
2018-03-28T19:30:21.673Z,8.66
2018-03-28T19:33:24.941Z,8.71
2018-03-28T19:36:28.194Z,8.74
2018-03-28T19:39:31.477Z,8.65
2018-03-28T19:42:34.790Z,8.76
2018-03-28T19:45:38.105Z,8.75
2018-03-28T19:48:41.418Z,8.73
2018-03-28T19:51:44.685Z,8.77
2018-03-28T19:54:47.961Z,8.85
2018-03-28T19:57:51.432Z,8.78
2018-03-28T20:00:55.473Z,8.78
2018-03-28T20:03:58.758Z,8.69
2018-03-28T20:07:03.481Z,8.63
2018-03-28T20:10:07.501Z,8.63
2018-03-28T20:13:11.808Z,8.58
2018-03-28T20:16:15.089Z,8.59
2018-03-28T20:19:18.419Z,8.64
2018-03-28T20:22:22.472Z,8.67
2018-03-28T20:25:25.834Z,8.56
2018-03-28T20:28:30.162Z,8.64
2018-03-28T20:31:33.453Z,8.70
2018-03-28T20:34:37.526Z,8.61
2018-03-28T20:37:41.285Z,8.67
2018-03-28T20:40:44.546Z,8.65
2018-03-28T20:43:47.862Z,8.68
2018-03-28T20:46:51.908Z,8.62
2018-03-28T20:49:55.216Z,8.58
2018-03-28T20:53:00.199Z,8.53
2018-03-28T20:56:03.638Z,8.57
2018-03-28T20:59:06.892Z,8.54
2018-03-28T21:02:10.162Z,8.56
2018-03-28T21:05:13.468Z,8.62
2018-03-28T21:08:17.450Z,8.56
2018-03-28T21:11:20.792Z,8.60
2018-03-28T21:14:24.062Z,8.58
2018-03-28T21:17:27.332Z,8.58
2018-03-28T21:20:30.624Z,8.58
2018-03-28T21:23:34.648Z,8.55
2018-03-28T21:26:37.941Z,8.57
2018-03-28T21:29:41.230Z,8.58
2018-03-28T21:32:44.543Z,8.57
2018-03-28T21:35:47.780Z,8.54
2018-03-28T21:38:51.068Z,8.62
2018-03-28T21:41:54.368Z,8.71
2018-03-28T21:44:57.649Z,8.74
2018-03-28T21:48:00.951Z,8.73
2018-03-28T21:51:05.103Z,8.71
2018-03-28T21:54:08.360Z,8.71
2018-03-28T21:57:11.638Z,8.70
2018-03-28T22:00:16.316Z,8.74
2018-03-28T22:03:19.587Z,8.76
2018-03-28T22:06:23.018Z,8.75
2018-03-28T22:09:26.717Z,8.72
2018-03-28T22:12:30.101Z,8.66
2018-03-28T22:15:33.372Z,8.64
2018-03-28T22:18:37.688Z,8.66
2018-03-28T22:21:41.776Z,8.63
2018-03-28T22:24:45.057Z,8.60
2018-03-28T22:27:49.323Z,8.62
2018-03-28T22:30:53.337Z,8.60
2018-03-28T22:33:57.391Z,8.64
2018-03-28T22:37:00.698Z,8.56
2018-03-28T22:40:04.550Z,8.54
2018-03-28T22:43:07.869Z,8.50
2018-03-28T22:46:12.278Z,8.51
2018-03-28T22:49:15.571Z,8.56
2018-03-28T22:52:21.204Z,8.53
2018-03-28T22:55:24.459Z,8.47
2018-03-28T22:58:29.483Z,8.50
2018-03-28T23:01:33.512Z,8.50
2018-03-28T23:04:37.769Z,8.51
2018-03-28T23:07:41.493Z,8.45
2018-03-28T23:10:46.529Z,8.51
2018-03-28T23:13:51.196Z,8.47
2018-03-28T23:16:54.682Z,8.43
2018-03-28T23:19:58.074Z,8.39
2018-03-28T23:23:01.366Z,8.43
2018-03-28T23:26:06.155Z,8.43
2018-03-28T23:29:09.510Z,8.44
2018-03-28T23:32:13.666Z,8.45
2018-03-28T23:35:17.606Z,8.39
2018-03-28T23:38:21.701Z,8.35
2018-03-28T23:41:24.961Z,8.34
2018-03-28T23:44:28.353Z,8.28
2018-03-28T23:47:32.697Z,8.24
2018-03-28T23:50:36.023Z,8.23
2018-03-28T23:53:39.305Z,8.17
2018-03-28T23:56:42.562Z,8.14
2018-03-28T23:59:46.276Z,8.07
